Time;durP1;ratioP1;P1;durP2;ratioP2;P2;SDS_P1;SDS_P2;PMS_P1;PMS_P2;Temp;Humidity;BMP_temperature;BMP_pressure;BME280_temperature;BME280_humidity;BME280_pressure;Samples;Min_cycle;Max_cycle;Signal;HPM_P1;HPM_P2
2022/06/06 00:01:25;;;;;;;9.50;5.60;;;;;;;12.19;58.80;100386.63;130074;1273;108733;-80
2022/06/06 00:04:30;;;;;;;7.70;5.50;;;;;;;12.20;58.98;100386.83;130120;1271;106713;-80
2022/06/06 00:07:36;;;;;;;7.60;5.70;;;;;;;12.18;59.29;100385.49;130154;1271;109150;-81
2022/06/06 00:10:42;;;;;;;8.80;5.30;;;;;;;12.13;59.27;100378.45;130127;1274;107736;-80
2022/06/06 00:13:48;;;;;;;8.50;5.80;;;;;;;12.10;59.15;100373.21;130107;1271;108655;-81
2022/06/06 00:16:53;;;;;;;7.20;5.60;;;;;;;12.08;59.42;100374.74;130012;1273;107841;-81
2022/06/06 00:19:59;;;;;;;7.70;6.10;;;;;;;12.04;59.37;100376.54;130091;1271;108610;-81
2022/06/06 00:23:04;;;;;;;7.50;5.20;;;;;;;12.01;59.21;100375.52;130680;1271;108953;-82
2022/06/06 00:26:12;;;;;;;6.80;5.20;;;;;;;11.95;59.34;100373.71;130272;1271;108761;-81
2022/06/06 00:29:20;;;;;;;6.70;5.30;;;;;;;11.88;59.50;100374.98;129890;1273;108688;-78
2022/06/06 00:35:49;;;;;;;6.20;4.90;;;;;;;11.77;59.59;100361.79;129932;1271;108791;-79
2022/06/06 00:38:54;;;;;;;7.70;5.10;;;;;;;11.73;59.88;100358.35;130523;1273;108980;-82
2022/06/06 00:42:00;;;;;;;6.50;5.30;;;;;;;11.66;60.00;100361.21;130458;1273;107756;-82
2022/06/06 00:45:28;;;;;;;6.90;5.20;;;;;;;11.61;60.02;100362.62;130623;1271;108767;-81
2022/06/06 00:48:39;;;;;;;7.50;5.20;;;;;;;11.58;60.14;100362.01;130088;1271;108718;-79
2022/06/06 00:51:44;;;;;;;7.50;5.00;;;;;;;11.56;59.92;100362.02;130164;1271;108889;-78
2022/06/06 00:54:52;;;;;;;9.50;6.00;;;;;;;11.57;60.04;100356.91;130205;1271;108741;-84
2022/06/06 00:58:01;;;;;;;8.40;5.60;;;;;;;11.60;59.88;100361.94;130368;1271;108834;-82
2022/06/06 01:01:07;;;;;;;7.20;5.70;;;;;;;11.62;60.15;100365.20;129995;1271;272978;-77
2022/06/06 01:04:15;;;;;;;8.20;5.70;;;;;;;11.62;60.07;100369.08;130163;1272;108858;-80
2022/06/06 01:07:20;;;;;;;7.40;5.60;;;;;;;11.61;60.47;100374.02;130184;1271;108669;-78
2022/06/06 01:10:26;;;;;;;7.30;5.70;;;;;;;11.59;59.94;100371.36;130173;1271;108880;-79
2022/06/06 01:13:32;;;;;;;8.30;5.60;;;;;;;11.56;60.20;100366.09;130275;1270;108942;-84
2022/06/06 01:16:47;;;;;;;8.00;6.00;;;;;;;11.53;60.43;100359.86;131003;1271;108644;-80
2022/06/06 01:20:03;;;;;;;7.30;5.50;;;;;;;11.50;60.57;100357.86;130808;1271;108768;-79
2022/06/06 01:23:33;;;;;;;9.20;6.20;;;;;;;11.45;60.61;100358.54;130846;1271;108612;-78
2022/06/06 01:27:03;;;;;;;7.40;5.70;;;;;;;11.38;60.47;100356.93;130869;1271;107953;-78
2022/06/06 01:30:14;;;;;;;7.70;5.50;;;;;;;11.34;60.73;100347.70;130805;1271;108851;-76
2022/06/06 01:33:19;;;;;;;7.80;5.80;;;;;;;11.28;60.78;100338.14;130117;1271;108788;-75
2022/06/06 01:36:29;;;;;;;7.00;5.30;;;;;;;11.25;60.80;100335.27;130112;1271;108668;-75
2022/06/06 01:39:34;;;;;;;8.80;6.00;;;;;;;11.23;61.40;100331.96;130206;1271;109040;-79
2022/06/06 01:42:48;;;;;;;7.50;5.60;;;;;;;11.18;60.83;100334.20;130285;1271;108841;-79
2022/06/06 01:45:57;;;;;;;6.80;5.10;;;;;;;11.11;61.13;100333.98;130067;1271;108893;-76
2022/06/06 01:49:04;;;;;;;8.00;4.70;;;;;;;11.07;61.20;100333.04;130055;1271;108713;-76
2022/06/06 01:52:13;;;;;;;7.90;5.40;;;;;;;11.07;61.36;100336.98;130003;1271;108823;-76
2022/06/06 01:55:19;;;;;;;6.60;5.50;;;;;;;11.09;61.29;100337.49;130030;1270;108715;-76
2022/06/06 01:58:27;;;;;;;7.50;6.10;;;;;;;11.10;61.45;100342.64;130012;1271;108807;-76
2022/06/06 02:01:33;;;;;;;7.20;5.70;;;;;;;11.09;61.30;100339.87;130189;1270;108672;-84
2022/06/06 02:04:38;;;;;;;8.70;6.40;;;;;;;11.09;61.29;100341.84;130231;1271;108435;-77
2022/06/06 02:07:44;;;;;;;8.70;6.30;;;;;;;11.06;61.30;100340.60;130016;1271;106978;-78
2022/06/06 02:10:49;;;;;;;6.70;5.80;;;;;;;11.03;61.36;100340.02;130109;1271;108828;-80
2022/06/06 02:13:54;;;;;;;7.00;5.80;;;;;;;10.99;61.46;100346.04;130131;1271;108839;-82
2022/06/06 02:17:00;;;;;;;7.30;5.50;;;;;;;10.97;61.42;100351.72;130192;1271;108956;-82
2022/06/06 02:20:07;;;;;;;6.80;5.50;;;;;;;10.96;61.46;100349.97;130400;1271;108871;-80
2022/06/06 02:23:13;;;;;;;7.30;5.60;;;;;;;10.95;61.40;100342.33;130077;1271;108869;-83
2022/06/06 02:26:18;;;;;;;7.00;5.30;;;;;;;10.93;61.50;100341.70;130121;1270;108754;-80
2022/06/06 02:29:24;;;;;;;7.10;5.20;;;;;;;10.92;61.71;100343.70;130099;1271;108849;-83
2022/06/06 02:32:29;;;;;;;6.70;5.80;;;;;;;10.90;61.76;100344.28;130126;1270;108714;-83
2022/06/06 02:35:38;;;;;;;7.30;5.90;;;;;;;10.86;61.68;100350.18;130117;1269;108665;-79
2022/06/06 02:38:44;;;;;;;6.30;5.10;;;;;;;10.86;61.97;100350.19;130198;1269;108852;-81
2022/06/06 02:41:49;;;;;;;7.40;5.00;;;;;;;10.89;61.90;100347.75;130296;1271;106913;-82
2022/06/06 02:44:54;;;;;;;7.60;5.20;;;;;;;10.93;62.13;100344.11;130104;1270;108743;-82
2022/06/06 02:48:00;;;;;;;7.80;5.80;;;;;;;11.04;62.14;100346.10;130715;1271;108752;-81
2022/06/06 02:51:06;;;;;;;7.90;5.80;;;;;;;11.16;62.04;100347.40;130244;1269;108890;-81
2022/06/06 02:54:11;;;;;;;8.00;6.10;;;;;;;11.26;62.30;100347.45;130165;1270;108800;-82
2022/06/06 02:57:17;;;;;;;7.00;5.50;;;;;;;11.36;62.33;100348.79;130187;1271;108656;-78
2022/06/06 03:00:24;;;;;;;6.80;5.70;;;;;;;11.43;62.21;100356.24;130213;1271;108762;-77
2022/06/06 03:03:30;;;;;;;6.60;5.40;;;;;;;11.53;62.16;100360.54;130084;1271;108736;-77
2022/06/06 03:06:46;;;;;;;7.00;5.40;;;;;;;11.65;62.55;100361.01;130134;1269;107709;-76
2022/06/06 03:10:02;;;;;;;7.00;5.70;;;;;;;11.75;62.46;100361.14;130200;1270;108796;-77
2022/06/06 03:13:27;;;;;;;6.90;5.70;;;;;;;11.93;62.76;100371.89;130074;1271;108624;-76
2022/06/06 03:24:01;;;;;;;5.50;4.80;;;;;;;13.17;62.33;100369.27;130132;1271;108677;-77
2022/06/06 03:27:21;;;;;;;5.60;5.10;;;;;;;13.64;62.27;100373.76;130102;1271;108700;-76
2022/06/06 03:30:37;;;;;;;6.20;5.40;;;;;;;14.15;62.21;100376.30;130011;1271;108264;-77
2022/06/06 03:33:48;;;;;;;7.90;6.30;;;;;;;14.62;61.86;100371.33;130045;1270;109577;-79
2022/06/06 03:37:03;;;;;;;15.80;9.00;;;;;;;15.02;61.93;100367.13;130114;1271;109135;-77
2022/06/06 03:40:18;;;;;;;16.80;8.70;;;;;;;15.46;61.73;100363.83;130174;1270;107165;-77
2022/06/06 03:43:32;;;;;;;11.40;7.40;;;;;;;15.91;62.01;100368.55;130124;1271;108965;-77
2022/06/06 03:46:47;;;;;;;12.60;7.90;;;;;;;16.29;61.87;100370.66;130110;1271;108761;-78
2022/06/06 03:50:03;;;;;;;8.10;6.50;;;;;;;16.61;61.87;100365.45;130117;1271;108736;-77
2022/06/06 03:53:15;;;;;;;7.70;6.80;;;;;;;16.92;61.74;100369.15;130137;1270;108839;-78
2022/06/06 03:56:35;;;;;;;6.60;5.90;;;;;;;17.15;61.80;100372.42;130025;1270;108568;-79
2022/06/06 03:59:42;;;;;;;6.80;6.00;;;;;;;17.33;61.79;100371.09;130055;1271;108695;-79
2022/06/06 04:02:49;;;;;;;7.10;6.40;;;;;;;17.46;61.83;100365.39;130162;1270;108790;-78
2022/06/06 04:05:55;;;;;;;7.60;6.80;;;;;;;17.63;61.97;100363.48;130043;1271;108710;-79
2022/06/06 04:09:01;;;;;;;7.90;7.20;;;;;;;17.80;61.96;100362.20;130080;1271;108684;-77
2022/06/06 04:12:22;;;;;;;9.10;7.90;;;;;;;17.99;62.07;100363.50;130168;1271;108728;-78
2022/06/06 04:15:38;;;;;;;9.10;8.00;;;;;;;18.12;62.00;100368.72;130056;1269;108709;-77
2022/06/06 04:18:58;;;;;;;9.40;8.50;;;;;;;18.24;62.10;100371.57;130101;1271;108720;-78
2022/06/06 04:22:19;;;;;;;9.20;8.30;;;;;;;18.36;62.21;100370.29;130215;1270;108782;-78
2022/06/06 04:25:35;;;;;;;8.80;8.00;;;;;;;18.44;62.05;100372.39;130175;1270;108886;-78
2022/06/06 04:28:50;;;;;;;11.10;10.10;;;;;;;18.53;62.05;100365.85;130120;1271;108866;-78
2022/06/06 04:32:06;;;;;;;10.60;9.60;;;;;;;18.62;62.00;100354.17;130191;1271;108644;-78
2022/06/06 04:35:25;;;;;;;10.60;9.60;;;;;;;18.70;61.93;100352.36;130038;1271;108763;-78
2022/06/06 04:38:37;;;;;;;11.50;10.40;;;;;;;18.75;61.95;100354.45;130053;1271;108864;-77
2022/06/06 04:41:49;;;;;;;9.70;8.80;;;;;;;18.75;61.91;100354.08;130078;1271;108758;-79
2022/06/06 04:45:03;;;;;;;16.60;14.80;;;;;;;18.78;62.04;100354.80;130053;1271;108695;-79
2022/06/06 04:48:10;;;;;;;12.80;11.50;;;;;;;18.83;62.17;100356.07;130228;1269;108474;-77
2022/06/06 04:51:19;;;;;;;10.80;9.80;;;;;;;18.89;61.99;100357.97;130271;1271;108855;-80
2022/06/06 04:54:26;;;;;;;9.50;8.60;;;;;;;18.98;62.14;100354.66;130099;1271;108800;-79
2022/06/06 04:57:32;;;;;;;8.80;8.00;;;;;;;19.11;62.02;100346.31;130054;1271;108707;-79
2022/06/06 05:00:40;;;;;;;9.10;8.30;;;;;;;19.25;62.01;100343.89;130168;1271;107633;-79
2022/06/06 05:03:45;;;;;;;10.00;9.00;;;;;;;19.37;61.88;100345.98;130308;1271;107614;-80
2022/06/06 05:07:17;;;;;;;9.80;8.90;;;;;;;19.49;61.68;100342.43;130201;1271;108807;-80
2022/06/06 05:10:51;;;;;;;9.80;8.90;;;;;;;19.60;61.54;100348.09;130162;1271;109043;-79
2022/06/06 05:14:35;;;;;;;10.00;9.00;;;;;;;19.66;61.56;100345.20;130143;1270;108958;-76
2022/06/06 05:17:55;;;;;;;9.00;8.10;;;;;;;19.70;61.35;100339.54;129935;1271;108979;-76
2022/06/06 05:21:16;;;;;;;9.40;8.50;;;;;;;19.69;61.42;100346.33;130092;1269;108951;-76
2022/06/06 05:24:33;;;;;;;8.50;7.70;;;;;;;19.72;61.46;100347.38;130114;1271;108868;-75
2022/06/06 05:28:06;;;;;;;8.70;7.90;;;;;;;19.77;61.60;100350.29;130110;1271;108714;-76
2022/06/06 05:31:24;;;;;;;9.60;8.70;;;;;;;19.81;61.55;100355.38;130064;1269;108055;-78
2022/06/06 05:34:37;;;;;;;9.10;8.20;;;;;;;19.87;61.62;100358.94;130110;1270;108742;-78
2022/06/06 05:37:56;;;;;;;9.80;8.90;;;;;;;19.88;61.58;100364.33;130201;1270;108684;-76
2022/06/06 05:41:14;;;;;;;8.90;8.10;;;;;;;19.93;61.63;100370.00;130254;1271;108934;-78
2022/06/06 05:44:28;;;;;;;9.40;8.50;;;;;;;20.01;61.46;100367.66;130114;1271;108744;-77
2022/06/06 05:47:41;;;;;;;9.60;8.60;;;;;;;20.09;61.46;100365.48;130071;1271;108647;-76
2022/06/06 05:50:59;;;;;;;9.20;8.40;;;;;;;20.14;61.37;100369.23;130251;1269;107829;-76
2022/06/06 05:54:16;;;;;;;9.00;8.10;;;;;;;20.21;61.42;100376.98;130062;1271;108636;-76
2022/06/06 05:57:42;;;;;;;9.40;8.50;;;;;;;20.28;61.18;100373.48;130143;1270;109571;-76
2022/06/06 06:01:04;;;;;;;9.00;8.10;;;;;;;20.36;61.10;100375.05;130075;1270;107696;-76
2022/06/06 06:04:31;;;;;;;8.80;7.80;;;;;;;20.44;61.16;100372.39;130143;1271;108952;-76
2022/06/06 06:07:43;;;;;;;8.40;7.70;;;;;;;20.51;61.17;100369.14;130093;1271;108898;-76
2022/06/06 06:10:53;;;;;;;8.30;7.50;;;;;;;20.60;60.79;100367.94;130057;1271;108692;-76
2022/06/06 06:14:11;;;;;;;8.20;7.40;;;;;;;20.68;60.69;100355.40;130202;1271;107687;-76
2022/06/06 06:17:22;;;;;;;8.40;7.60;;;;;;;20.75;60.42;100352.41;130205;1271;107794;-76
2022/06/06 06:20:32;;;;;;;8.10;7.30;;;;;;;20.84;60.51;100357.02;130158;1271;107675;-76
2022/06/06 06:23:41;;;;;;;8.50;7.00;;;;;;;20.95;60.67;100355.08;130249;1271;108763;-76
2022/06/06 06:26:48;;;;;;;7.30;6.70;;;;;;;21.05;60.43;100349.40;130198;1271;108661;-75
2022/06/06 06:29:53;;;;;;;7.40;6.70;;;;;;;21.15;60.50;100340.70;130190;1270;108835;-75
2022/06/06 06:33:16;;;;;;;7.70;6.90;;;;;;;21.26;60.36;100333.48;130197;1271;108724;-77
2022/06/06 06:36:43;;;;;;;6.90;6.30;;;;;;;21.35;59.98;100332.17;130154;1271;108739;-76
2022/06/06 06:40:03;;;;;;;7.80;7.10;;;;;;;21.41;59.69;100328.91;130170;1270;107158;-77
2022/06/06 06:43:15;;;;;;;7.00;6.20;;;;;;;21.47;59.42;100327.13;130157;1271;108892;-76
2022/06/06 06:46:27;;;;;;;7.40;6.60;;;;;;;21.56;59.46;100329.80;130169;1270;108650;-76
2022/06/06 06:49:41;;;;;;;6.90;6.20;;;;;;;21.65;59.10;100327.88;130231;1269;107651;-76
2022/06/06 06:53:02;;;;;;;9.20;7.00;;;;;;;21.71;58.58;100328.36;130115;1271;109045;-77
2022/06/06 06:56:18;;;;;;;8.70;6.00;;;;;;;21.77;58.27;100320.81;130185;1270;108870;-75
2022/06/06 06:59:34;;;;;;;7.20;5.70;;;;;;;21.84;58.52;100326.30;130188;1271;108748;-75
2022/06/06 07:10:23;;;;;;;10.50;9.40;;;;;;;22.23;57.89;100323.09;130173;1270;108833;-76
2022/06/06 07:13:45;;;;;;;6.40;5.50;;;;;;;22.36;57.50;100322.66;130192;1271;108860;-75
2022/06/06 07:16:56;;;;;;;7.90;7.00;;;;;;;22.50;57.24;100323.40;130196;1270;108943;-76
2022/06/06 07:20:05;;;;;;;6.50;5.90;;;;;;;22.66;57.04;100317.18;130178;1271;107973;-76
2022/06/06 07:23:14;;;;;;;6.80;5.70;;;;;;;22.78;56.72;100315.38;130217;1270;108905;-75
2022/06/06 07:26:19;;;;;;;6.80;6.20;;;;;;;22.90;56.30;100308.45;130191;1271;108883;-77
2022/06/06 07:29:25;;;;;;;5.40;4.90;;;;;;;23.04;56.25;100312.29;130187;1271;108729;-76
2022/06/06 07:32:39;;;;;;;5.70;4.90;;;;;;;23.16;55.63;100304.10;130123;1271;109208;-75
2022/06/06 07:35:57;;;;;;;4.90;4.50;;;;;;;23.27;55.20;100304.91;130181;1271;108927;-75
2022/06/06 07:39:18;;;;;;;4.80;4.40;;;;;;;23.37;54.69;100306.46;130194;1269;108779;-75
2022/06/06 07:42:41;;;;;;;8.80;4.30;;;;;;;23.51;54.32;100305.16;130212;1271;108756;-75
2022/06/06 07:45:49;;;;;;;4.40;4.00;;;;;;;23.67;54.11;100300.80;130173;1271;108703;-77
2022/06/06 07:49:05;;;;;;;4.20;3.80;;;;;;;23.74;53.60;100298.58;130153;1271;109050;-76
2022/06/06 07:52:20;;;;;;;5.50;3.90;;;;;;;23.86;52.97;100296.89;130201;1270;108681;-77
2022/06/06 07:55:31;;;;;;;4.10;3.80;;;;;;;24.02;53.11;100298.55;130187;1271;108783;-78
2022/06/06 07:58:44;;;;;;;4.00;3.60;;;;;;;24.16;52.31;100297.19;130193;1270;108211;-75
2022/06/06 08:02:03;;;;;;;4.20;3.30;;;;;;;24.26;52.00;100297.34;130163;1270;108792;-76
2022/06/06 08:05:23;;;;;;;3.40;3.10;;;;;;;24.32;51.94;100299.48;130193;1269;108758;-75
2022/06/06 08:08:45;;;;;;;3.80;3.40;;;;;;;24.36;51.28;100305.23;130173;1271;108642;-76
2022/06/06 08:12:05;;;;;;;3.70;3.30;;;;;;;24.37;51.19;100299.23;130148;1270;108818;-75
2022/06/06 08:15:21;;;;;;;3.50;3.20;;;;;;;24.43;50.90;100298.77;130178;1271;108820;-75
2022/06/06 08:19:00;;;;;;;3.20;3.00;;;;;;;24.47;50.56;100294.95;130094;1269;108658;-75
2022/06/06 08:22:08;;;;;;;3.80;3.20;;;;;;;24.46;50.42;100298.41;130057;1270;108768;-75
2022/06/06 08:25:16;;;;;;;3.60;3.20;;;;;;;24.48;50.74;100298.66;130093;1271;108740;-75
2022/06/06 08:28:22;;;;;;;4.80;3.30;;;;;;;24.54;50.31;100290.30;130118;1270;108625;-74
2022/06/06 08:31:27;;;;;;;3.70;3.40;;;;;;;24.60;50.20;100284.25;130052;1270;108934;-75
2022/06/06 08:34:33;;;;;;;4.50;3.10;;;;;;;24.60;49.55;100286.70;129962;1270;109544;-75
2022/06/06 08:38:10;;;;;;;3.30;3.00;;;;;;;24.55;49.25;100286.40;130109;1270;107593;-74
2022/06/06 08:41:52;;;;;;;4.50;3.10;;;;;;;24.52;48.73;100289.46;130115;1270;108510;-75
2022/06/06 08:45:19;;;;;;;3.40;3.10;;;;;;;24.49;48.39;100296.42;129973;1271;109061;-75
2022/06/06 08:48:52;;;;;;;3.70;3.40;;;;;;;24.46;48.23;100301.10;130108;1270;108712;-75
2022/06/06 08:52:11;;;;;;;3.60;3.20;;;;;;;24.45;48.56;100288.96;129948;1270;108828;-76
2022/06/06 08:55:44;;;;;;;4.90;3.00;;;;;;;24.44;48.20;100277.34;130122;1270;108723;-75
2022/06/06 08:59:09;;;;;;;3.30;3.10;;;;;;;24.45;47.89;100275.22;130137;1270;108821;-76
2022/06/06 09:02:40;;;;;;;3.20;2.80;;;;;;;24.48;48.08;100267.20;130072;1270;108816;-75
2022/06/06 09:06:23;;;;;;;2.70;2.50;;;;;;;24.49;47.42;100266.50;130127;1268;108968;-75
2022/06/06 09:10:07;;;;;;;2.90;2.70;;;;;;;24.48;47.31;100261.17;130007;1270;108806;-75
2022/06/06 09:13:49;;;;;;;3.10;2.90;;;;;;;24.48;46.49;100258.52;129957;1270;108744;-75
2022/06/06 09:17:16;;;;;;;;;;;;;;;24.45;46.99;100251.54;129948;1268;108643;-75
2022/06/06 09:20:41;;;;;;;2.90;2.70;;;;;;;24.46;47.09;100245.62;129995;1270;108576;-75
2022/06/06 09:24:31;;;;;;;3.20;2.90;;;;;;;24.47;46.88;100246.52;130170;1270;108865;-75
2022/06/06 09:28:12;;;;;;;3.70;2.90;;;;;;;24.50;46.86;100241.78;130018;1270;109102;-75
2022/06/06 09:31:49;;;;;;;3.80;2.90;;;;;;;24.52;47.05;100237.85;130073;1270;108234;-76
2022/06/06 09:35:28;;;;;;;6.30;3.10;;;;;;;24.53;46.16;100235.29;130225;1270;108747;-77
2022/06/06 09:38:56;;;;;;;3.40;3.10;;;;;;;24.52;46.37;100227.52;130282;1270;107307;-77
2022/06/06 09:42:15;;;;;;;3.30;2.90;;;;;;;24.55;46.27;100226.43;130273;1270;108936;-75
2022/06/06 09:45:30;;;;;;;3.30;3.00;;;;;;;24.55;45.77;100223.87;130166;1270;108804;-76
2022/06/06 09:49:04;;;;;;;2.90;2.70;;;;;;;24.52;45.35;100216.34;130167;1270;107639;-76
2022/06/06 09:52:36;;;;;;;3.50;3.20;;;;;;;24.50;45.28;100211.55;130143;1270;108753;-76
2022/06/06 10:00:13;;;;;;;3.40;3.10;;;;;;;24.54;45.15;100212.56;130373;1270;108761;-76
2022/06/06 10:03:58;;;;;;;3.60;3.30;;;;;;;24.59;44.83;100212.66;130206;1270;108836;-77
2022/06/06 10:07:34;;;;;;;3.10;2.90;;;;;;;24.65;45.30;100205.66;130050;1270;108720;-76
2022/06/06 10:11:01;;;;;;;3.70;3.30;;;;;;;24.76;45.35;100209.48;130067;1270;108852;-77
2022/06/06 10:14:17;;;;;;;3.60;3.30;;;;;;;24.85;45.18;100210.83;130275;1270;108738;-77
2022/06/06 10:17:46;;;;;;;3.50;3.20;;;;;;;24.91;44.93;100209.02;130201;1271;108708;-76
2022/06/06 10:21:17;;;;;;;3.20;2.90;;;;;;;24.95;44.66;100203.29;130214;1271;108777;-76
2022/06/06 10:24:43;;;;;;;3.00;2.70;;;;;;;24.97;44.43;100194.88;130166;1270;108786;-76
2022/06/06 10:28:07;;;;;;;3.30;3.00;;;;;;;25.01;44.36;100189.73;130017;1269;108661;-76
2022/06/06 10:31:32;;;;;;;3.30;3.00;;;;;;;25.05;44.12;100184.98;130152;1270;108589;-76
2022/06/06 10:35:07;;;;;;;4.90;3.50;;;;;;;25.08;44.02;100189.06;130099;1270;107055;-77
2022/06/06 10:38:36;;;;;;;3.30;3.00;;;;;;;25.14;44.04;100193.86;130139;1271;108722;-76
2022/06/06 10:41:57;;;;;;;3.50;3.20;;;;;;;25.19;43.95;100191.39;130215;1270;108889;-77
2022/06/06 10:45:31;;;;;;;3.80;3.50;;;;;;;25.21;43.98;100192.27;130256;1270;108543;-76
2022/06/06 10:49:00;;;;;;;3.50;3.20;;;;;;;25.25;43.78;100189.07;130032;1271;108844;-76
2022/06/06 10:52:39;;;;;;;3.40;3.10;;;;;;;25.30;43.74;100185.30;129969;1271;108816;-76
2022/06/06 10:56:25;;;;;;;3.50;3.20;;;;;;;25.35;43.97;100192.54;129912;1271;108688;-76
2022/06/06 10:59:55;;;;;;;3.90;3.10;;;;;;;25.42;43.75;100186.95;129437;1272;108791;-76
2022/06/06 11:03:20;;;;;;;3.60;3.10;;;;;;;25.49;43.46;100176.77;129977;1271;108878;-74
2022/06/06 11:07:12;;;;;;;3.40;3.10;;;;;;;25.53;43.61;100174.77;129949;1273;108729;-76
2022/06/06 11:10:57;;;;;;;3.40;3.10;;;;;;;25.62;43.76;100177.63;129248;1277;108749;-77
2022/06/06 11:14:08;;;;;;;3.70;3.40;;;;;;;25.66;43.45;100171.07;129998;1273;108756;-76
2022/06/06 11:17:40;;;;;;;3.50;3.20;;;;;;;25.71;43.31;100170.96;130055;1273;108918;-77
2022/06/06 11:21:12;;;;;;;3.80;3.20;;;;;;;25.76;43.44;100170.09;130067;1273;108837;-77
2022/06/06 11:24:24;;;;;;;3.40;3.10;;;;;;;25.84;43.42;100167.73;129883;1273;109707;-77
2022/06/06 11:28:11;;;;;;;4.60;3.30;;;;;;;25.90;43.44;100157.96;130018;1273;108903;-75
2022/06/06 11:31:40;;;;;;;3.40;3.10;;;;;;;25.93;42.80;100160.35;129958;1273;108833;-75
2022/06/06 11:35:16;;;;;;;3.70;3.40;;;;;;;25.96;43.25;100156.23;129960;1273;108801;-76
2022/06/06 11:39:07;;;;;;;3.90;3.50;;;;;;;26.03;42.95;100151.21;129856;1273;108845;-76
2022/06/06 11:42:35;;;;;;;4.10;3.30;;;;;;;26.07;42.79;100152.58;129294;1273;109684;-76
2022/06/06 11:46:05;;;;;;;3.60;3.30;;;;;;;26.13;42.90;100141.86;129963;1273;108844;-75
2022/06/06 11:49:53;;;;;;;3.40;3.20;;;;;;;26.18;42.59;100142.73;129916;1272;108831;-75
2022/06/06 11:53:25;;;;;;;5.10;3.30;;;;;;;26.15;42.58;100138.59;129601;1273;108678;-75
2022/06/06 11:57:18;;;;;;;3.50;3.20;;;;;;;26.16;42.87;100134.71;129857;1273;108885;-75
2022/06/06 12:00:32;;;;;;;3.40;3.10;;;;;;;26.23;42.47;100138.55;129914;1272;109334;-75
2022/06/06 12:04:08;;;;;;;4.10;3.10;;;;;;;26.33;42.36;100139.14;130009;1273;108838;-75
2022/06/06 12:07:51;;;;;;;3.50;3.20;;;;;;;26.49;42.38;100134.29;129902;1273;108832;-75
2022/06/06 12:11:23;;;;;;;3.70;3.10;;;;;;;26.61;41.95;100133.63;129941;1271;108963;-76
2022/06/06 12:14:50;;;;;;;4.20;2.90;;;;;;;26.72;42.02;100127.30;129976;1271;108710;-75
2022/06/06 12:18:16;;;;;;;3.50;3.20;;;;;;;26.83;42.04;100125.41;129906;1273;108728;-77
2022/06/06 12:22:12;;;;;;;3.20;2.90;;;;;;;26.92;41.51;100117.58;129919;1273;108956;-75
2022/06/06 12:25:31;;;;;;;3.40;3.10;;;;;;;26.95;40.89;100119.61;129439;1274;108820;-75
2022/06/06 12:29:05;;;;;;;4.60;2.90;;;;;;;26.87;40.76;100115.48;129967;1273;108854;-75
2022/06/06 12:32:33;;;;;;;3.30;3.00;;;;;;;26.77;41.11;100104.96;129874;1273;108527;-74
2022/06/06 12:35:48;;;;;;;3.20;2.90;;;;;;;26.71;40.47;100107.28;130026;1271;108192;-75
2022/06/06 12:39:02;;;;;;;3.10;2.80;;;;;;;26.71;40.12;100106.45;130000;1271;108834;-76
2022/06/06 12:42:15;;;;;;;3.20;2.90;;;;;;;26.81;39.93;100102.13;129953;1271;108891;-75
2022/06/06 12:46:04;;;;;;;3.50;3.00;;;;;;;27.03;39.87;100104.16;129966;1271;109020;-75
2022/06/06 12:49:44;;;;;;;3.10;2.90;;;;;;;27.26;39.50;100097.83;130026;1271;107166;-75
2022/06/06 12:53:18;;;;;;;3.20;2.90;;;;;;;27.39;39.35;100099.26;130020;1273;107526;-75
2022/06/06 12:56:43;;;;;;;3.90;2.90;;;;;;;27.42;39.27;100099.42;130019;1273;108665;-76
2022/06/06 13:00:02;;;;;;;4.00;3.10;;;;;;;27.49;39.22;100099.23;129844;1271;308361;-76
2022/06/06 13:03:15;;;;;;;3.10;2.90;;;;;;;27.52;38.95;100095.02;130029;1273;108868;-77
2022/06/06 13:06:34;;;;;;;3.60;2.80;;;;;;;27.53;39.02;100093.11;130033;1273;108794;-75
2022/06/06 13:10:01;;;;;;;3.20;2.90;;;;;;;27.54;39.07;100090.92;130058;1273;108866;-76
2022/06/06 13:13:39;;;;;;;3.40;3.10;;;;;;;27.62;39.09;100081.52;130015;1273;108669;-75
2022/06/06 13:16:57;;;;;;;3.90;3.10;;;;;;;27.78;38.89;100078.48;129911;1273;108496;-75
2022/06/06 13:20:11;;;;;;;3.30;2.90;;;;;;;27.86;38.32;100074.52;130062;1273;108882;-75
2022/06/06 13:23:29;;;;;;;3.20;2.90;;;;;;;27.91;38.46;100073.41;129985;1272;109009;-76
2022/06/06 13:26:47;;;;;;;3.50;3.20;;;;;;;27.95;37.97;100068.32;130087;1273;108735;-76
2022/06/06 13:29:52;;;;;;;3.30;3.10;;;;;;;27.88;38.29;100061.11;130287;1271;108545;-76
2022/06/06 13:33:10;;;;;;;3.00;2.80;;;;;;;27.81;38.29;100061.37;130164;1271;108692;-76
2022/06/06 13:36:30;;;;;;;3.20;3.00;;;;;;;27.88;38.72;100055.02;130136;1271;108927;-74
2022/06/06 13:39:51;;;;;;;3.50;3.20;;;;;;;27.96;38.03;100055.65;130111;1271;108730;-73
2022/06/06 13:43:07;;;;;;;;;;;;;;;28.06;38.18;100048.09;130218;1271;108694;-75
2022/06/06 13:46:23;;;;;;;3.70;3.40;;;;;;;28.21;38.22;100049.06;130142;1271;108363;-73
2022/06/06 13:49:44;;;;;;;3.20;2.90;;;;;;;28.36;38.28;100044.83;130238;1269;108874;-76
2022/06/06 13:53:05;;;;;;;3.60;3.00;;;;;;;28.42;38.04;100047.52;130245;1271;108886;-74
2022/06/06 13:56:24;;;;;;;3.80;3.50;;;;;;;28.46;38.00;100045.85;130236;1270;108913;-76
2022/06/06 13:59:45;;;;;;;3.50;3.20;;;;;;;28.48;37.79;100043.77;130298;1271;108991;-78
2022/06/06 14:03:15;;;;;;;3.80;3.50;;;;;;;28.48;37.57;100042.88;130316;1269;108862;-77
2022/06/06 14:07:05;;;;;;;3.20;2.90;;;;;;;28.46;37.42;100038.45;130239;1271;108638;-78
2022/06/06 14:10:12;;;;;;;3.80;3.50;;;;;;;28.48;37.52;100040.52;130192;1271;108878;-77
2022/06/06 14:13:28;;;;;;;3.50;3.20;;;;;;;28.47;37.39;100034.59;130220;1269;108716;-77
2022/06/06 14:16:44;;;;;;;3.50;3.20;;;;;;;28.43;37.27;100028.19;130237;1271;107774;-77
2022/06/06 14:20:02;;;;;;;3.40;3.10;;;;;;;28.39;37.38;100031.43;130303;1269;107043;-77
2022/06/06 14:23:29;;;;;;;3.60;3.30;;;;;;;28.37;36.91;100027.10;130308;1270;108838;-78
2022/06/06 14:26:35;;;;;;;3.90;3.50;;;;;;;28.36;37.17;100026.77;130101;1270;108795;-81
2022/06/06 14:29:55;;;;;;;4.30;3.80;;;;;;;28.33;37.18;100027.75;130160;1270;108796;-78
2022/06/06 14:33:02;;;;;;;3.70;3.00;;;;;;;28.27;37.09;100027.71;130156;1270;108837;-78
2022/06/06 14:36:20;;;;;;;4.30;4.00;;;;;;;28.19;36.90;100028.81;130218;1270;109036;-78
2022/06/06 14:39:28;;;;;;;3.40;3.10;;;;;;;28.06;36.59;100029.77;130224;1271;107377;-78
2022/06/06 14:42:35;;;;;;;3.90;3.00;;;;;;;27.95;36.48;100025.05;130144;1271;108837;-78
2022/06/06 14:45:46;;;;;;;3.80;3.00;;;;;;;27.88;36.66;100020.52;130110;1270;108880;-79
2022/06/06 14:48:55;;;;;;;3.20;2.90;;;;;;;27.87;36.80;100020.95;130226;1271;108483;-79
2022/06/06 14:52:10;;;;;;;3.70;2.90;;;;;;;27.89;36.92;100019.51;130079;1271;108396;-79
2022/06/06 14:55:22;;;;;;;3.20;3.00;;;;;;;27.91;36.44;100012.43;130064;1271;108682;-78
2022/06/06 14:58:32;;;;;;;3.20;2.90;;;;;;;27.90;36.73;100013.30;130096;1271;108624;-80
2022/06/06 15:01:37;;;;;;;3.30;3.00;;;;;;;27.88;36.93;100012.53;130186;1271;108776;-79
2022/06/06 15:04:44;;;;;;;3.10;2.90;;;;;;;27.84;36.38;100007.24;130170;1271;108664;-78
2022/06/06 15:07:57;;;;;;;3.30;2.90;;;;;;;27.74;36.31;100010.53;130157;1271;107598;-78
2022/06/06 15:11:08;;;;;;;3.00;2.70;;;;;;;27.66;36.67;100008.27;130405;1270;107735;-78
2022/06/06 15:14:21;;;;;;;3.30;3.00;;;;;;;27.59;36.53;100006.36;130484;1271;109034;-79
2022/06/06 15:17:29;;;;;;;3.60;3.00;;;;;;;27.54;36.48;100006.67;130423;1271;108869;-78
2022/06/06 15:20:38;;;;;;;3.20;3.00;;;;;;;27.51;37.02;100004.70;130270;1270;108846;-77
2022/06/06 15:23:49;;;;;;;2.90;2.70;;;;;;;27.47;37.06;100001.08;130350;1270;108983;-82